YPGV/GOV METAR and TAF weather

Enter ICAO airport designator
Station Type Date Time Source
YPGV METAR 2021/01/17 18:30 UTC NOAA

YPGV 171830Z AUTO 09006KT 9999 // SCT015 SCT021 BKN035 27/25 Q1004


Station Type Date Time Source
YPGV Decoded METAR 2021/01/17 18:30 UTC NOAA

Station name not available
Jan 17, 2021 - 01:30 PM EST / 2021.01.17 1830 UTC
Wind: from the E (090 degrees) at 7 MPH (6 KT):0
Visibility: greater than 7 mile(s):0
Sky conditions: mostly cloudy
Temperature: 80 F (27 C)
Dew Point: 77 F (25 C)
Relative Humidity: 88%
Pressure (altimeter): 29.65 in. Hg (1004 hPa)
ob: YPGV 171830Z AUTO 09006KT 9999 // SCT015 SCT021 BKN035 27/25 Q1004
cycle: 18

Station Type Date Time Source
YPGV TAF 2021/01/17 03:00 UTC NOAA

TAF
AMD YPGV 170332Z 1703/1714 01010KT 9999 -SHRA SCT015
TEMPO 1703/1714 10015G25KT 1000 +SHRA BKN006 PROB30
TEMPO 1703/1714 VRB20G35KT 0500 +TSRA BKN005 SCT015CB

Example: see airport list